sensor_id;sensor_type;location;lat;lon;timestamp;P1;durP1;ratioP1;P2;durP2;ratioP2
41139;SDS011;26881;48.784;9.192;2023-04-01T00:00:20;2.35;;;0.68;;
41139;SDS011;26881;48.784;9.192;2023-04-01T00:05:42;2.58;;;1.00;;
41139;SDS011;26881;48.784;9.192;2023-04-01T00:11:04;3.88;;;0.82;;
41139;SDS011;26881;48.784;9.192;2023-04-01T00:16:26;1.20;;;0.60;;
41139;SDS011;26881;48.784;9.192;2023-04-01T00:21:48;1.70;;;0.70;;
41139;SDS011;26881;48.784;9.192;2023-04-01T00:27:10;3.13;;;0.80;;
41139;SDS011;26881;48.784;9.192;2023-04-01T00:32:32;3.80;;;1.20;;
41139;SDS011;26881;48.784;9.192;2023-04-01T00:37:53;2.33;;;1.00;;
41139;SDS011;26881;48.784;9.192;2023-04-01T00:43:17;4.53;;;1.00;;
41139;SDS011;26881;48.784;9.192;2023-04-01T00:48:45;3.08;;;0.85;;
41139;SDS011;26881;48.784;9.192;2023-04-01T00:54:09;3.30;;;0.90;;
41139;SDS011;26881;48.784;9.192;2023-04-01T00:59:34;3.95;;;1.05;;
41139;SDS011;26881;48.784;9.192;2023-04-01T01:05:00;3.05;;;0.85;;
41139;SDS011;26881;48.784;9.192;2023-04-01T01:10:23;2.77;;;0.90;;
41139;SDS011;26881;48.784;9.192;2023-04-01T01:15:53;3.30;;;1.02;;
41139;SDS011;26881;48.784;9.192;2023-04-01T01:21:54;3.85;;;1.00;;
41139;SDS011;26881;48.784;9.192;2023-04-01T01:27:26;1.85;;;0.88;;
41139;SDS011;26881;48.784;9.192;2023-04-01T01:33:02;3.78;;;0.70;;
41139;SDS011;26881;48.784;9.192;2023-04-01T01:38:35;3.35;;;0.93;;
41139;SDS011;26881;48.784;9.192;2023-04-01T01:43:58;3.28;;;0.70;;
41139;SDS011;26881;48.784;9.192;2023-04-01T01:49:24;2.47;;;1.15;;
41139;SDS011;26881;48.784;9.192;2023-04-01T01:54:50;2.60;;;0.63;;
41139;SDS011;26881;48.784;9.192;2023-04-01T02:00:13;3.13;;;0.90;;
41139;SDS011;26881;48.784;9.192;2023-04-01T02:05:36;1.27;;;0.80;;
41139;SDS011;26881;48.784;9.192;2023-04-01T02:11:00;3.72;;;0.82;;
41139;SDS011;26881;48.784;9.192;2023-04-01T02:22:28;3.10;;;0.70;;
41139;SDS011;26881;48.784;9.192;2023-04-01T02:27:52;4.72;;;0.80;;
41139;SDS011;26881;48.784;9.192;2023-04-01T02:33:16;3.47;;;1.08;;
41139;SDS011;26881;48.784;9.192;2023-04-01T02:38:38;3.13;;;0.68;;
41139;SDS011;26881;48.784;9.192;2023-04-01T02:44:01;1.77;;;0.90;;
41139;SDS011;26881;48.784;9.192;2023-04-01T02:49:22;1.20;;;0.60;;
41139;SDS011;26881;48.784;9.192;2023-04-01T02:54:44;1.83;;;0.85;;
41139;SDS011;26881;48.784;9.192;2023-04-01T03:00:06;1.92;;;0.63;;
41139;SDS011;26881;48.784;9.192;2023-04-01T03:05:32;1.57;;;0.60;;
41139;SDS011;26881;48.784;9.192;2023-04-01T03:10:54;2.45;;;0.40;;
41139;SDS011;26881;48.784;9.192;2023-04-01T03:16:16;0.28;;;0.20;;
41139;SDS011;26881;48.784;9.192;2023-04-01T03:21:38;1.63;;;0.40;;
41139;SDS011;26881;48.784;9.192;2023-04-01T03:26:59;3.78;;;0.40;;
41139;SDS011;26881;48.784;9.192;2023-04-01T03:32:21;0.45;;;0.32;;
41139;SDS011;26881;48.784;9.192;2023-04-01T03:37:43;1.23;;;0.50;;
41139;SDS011;26881;48.784;9.192;2023-04-01T03:43:05;2.00;;;0.50;;
41139;SDS011;26881;48.784;9.192;2023-04-01T03:48:29;2.08;;;0.45;;
41139;SDS011;26881;48.784;9.192;2023-04-01T03:53:52;1.17;;;0.50;;
41139;SDS011;26881;48.784;9.192;2023-04-01T03:59:13;1.90;;;0.50;;
41139;SDS011;26881;48.784;9.192;2023-04-01T04:04:35;0.50;;;0.50;;
41139;SDS011;26881;48.784;9.192;2023-04-01T04:09:57;0.45;;;0.45;;
41139;SDS011;26881;48.784;9.192;2023-04-01T04:15:19;1.75;;;0.50;;
41139;SDS011;26881;48.784;9.192;2023-04-01T04:20:47;2.50;;;0.50;;
41139;SDS011;26881;48.784;9.192;2023-04-01T04:26:13;2.58;;;0.50;;
41139;SDS011;26881;48.784;9.192;2023-04-01T04:31:35;1.30;;;0.50;;
41139;SDS011;26881;48.784;9.192;2023-04-01T04:36:57;3.67;;;0.88;;
41139;SDS011;26881;48.784;9.192;2023-04-01T04:42:19;0.55;;;0.40;;
41139;SDS011;26881;48.784;9.192;2023-04-01T04:47:41;1.50;;;0.60;;
41139;SDS011;26881;48.784;9.192;2023-04-01T04:53:03;0.52;;;0.45;;
41139;SDS011;26881;48.784;9.192;2023-04-01T04:58:24;1.58;;;0.60;;
41139;SDS011;26881;48.784;9.192;2023-04-01T05:03:46;1.70;;;0.50;;
41139;SDS011;26881;48.784;9.192;2023-04-01T05:09:08;1.10;;;0.57;;
41139;SDS011;26881;48.784;9.192;2023-04-01T05:14:30;1.45;;;0.60;;
41139;SDS011;26881;48.784;9.192;2023-04-01T05:19:52;2.13;;;0.63;;
41139;SDS011;26881;48.784;9.192;2023-04-01T05:25:14;2.90;;;0.70;;
41139;SDS011;26881;48.784;9.192;2023-04-01T05:30:35;3.00;;;0.73;;
41139;SDS011;26881;48.784;9.192;2023-04-01T05:36:05;2.08;;;0.88;;
41139;SDS011;26881;48.784;9.192;2023-04-01T05:41:27;4.75;;;0.80;;
41139;SDS011;26881;48.784;9.192;2023-04-01T05:46:49;7.80;;;0.95;;
41139;SDS011;26881;48.784;9.192;2023-04-01T05:52:11;5.88;;;1.20;;
41139;SDS011;26881;48.784;9.192;2023-04-01T05:57:33;5.10;;;1.00;;
41139;SDS011;26881;48.784;9.192;2023-04-01T06:02:57;8.27;;;1.67;;
41139;SDS011;26881;48.784;9.192;2023-04-01T06:08:21;8.85;;;1.20;;
41139;SDS011;26881;48.784;9.192;2023-04-01T06:13:53;5.22;;;0.90;;
41139;SDS011;26881;48.784;9.192;2023-04-01T06:19:29;3.63;;;0.90;;
41139;SDS011;26881;48.784;9.192;2023-04-01T06:25:17;4.80;;;0.80;;
41139;SDS011;26881;48.784;9.192;2023-04-01T06:36:54;6.20;;;1.02;;
41139;SDS011;26881;48.784;9.192;2023-04-01T06:42:53;3.95;;;0.80;;
41139;SDS011;26881;48.784;9.192;2023-04-01T06:59:28;2.30;;;0.80;;
41139;SDS011;26881;48.784;9.192;2023-04-01T07:04:53;2.58;;;0.63;;
41139;SDS011;26881;48.784;9.192;2023-04-01T07:16:15;1.33;;;0.70;;
41139;SDS011;26881;48.784;9.192;2023-04-01T07:21:47;4.13;;;0.73;;
41139;SDS011;26881;48.784;9.192;2023-04-01T07:27:13;1.30;;;0.70;;
41139;SDS011;26881;48.784;9.192;2023-04-01T07:39:01;2.90;;;1.05;;
41139;SDS011;26881;48.784;9.192;2023-04-01T07:44:16;0.90;;;0.45;;
41139;SDS011;26881;48.784;9.192;2023-04-01T07:49:55;2.72;;;0.68;;
41139;SDS011;26881;48.784;9.192;2023-04-01T08:06:58;1.05;;;0.70;;
41139;SDS011;26881;48.784;9.192;2023-04-01T08:12:48;2.95;;;1.02;;
41139;SDS011;26881;48.784;9.192;2023-04-01T08:18:23;3.55;;;0.63;;
41139;SDS011;26881;48.784;9.192;2023-04-01T08:23:51;2.15;;;0.77;;
41139;SDS011;26881;48.784;9.192;2023-04-01T09:31:50;0.93;;;0.60;;
41139;SDS011;26881;48.784;9.192;2023-04-01T09:49:03;1.95;;;0.60;;
41139;SDS011;26881;48.784;9.192;2023-04-01T10:00:46;0.63;;;0.40;;
41139;SDS011;26881;48.784;9.192;2023-04-01T10:24:18;0.60;;;0.60;;
41139;SDS011;26881;48.784;9.192;2023-04-01T10:30:05;1.52;;;0.52;;
41139;SDS011;26881;48.784;9.192;2023-04-01T10:41:53;1.45;;;0.20;;
41139;SDS011;26881;48.784;9.192;2023-04-01T10:58:49;0.68;;;0.60;;
41139;SDS011;26881;48.784;9.192;2023-04-01T11:10:30;0.63;;;0.35;;
41139;SDS011;26881;48.784;9.192;2023-04-01T11:22:08;1.45;;;0.47;;
41139;SDS011;26881;48.784;9.192;2023-04-01T11:33:47;0.75;;;0.60;;
41139;SDS011;26881;48.784;9.192;2023-04-01T12:02:24;0.60;;;0.60;;
41139;SDS011;26881;48.784;9.192;2023-04-01T12:13:23;1.42;;;0.40;;
41139;SDS011;26881;48.784;9.192;2023-04-01T12:19:11;0.60;;;0.60;;
41139;SDS011;26881;48.784;9.192;2023-04-01T12:36:18;0.50;;;0.50;;
41139;SDS011;26881;48.784;9.192;2023-04-01T12:42:00;3.15;;;2.10;;
41139;SDS011;26881;48.784;9.192;2023-04-01T13:10:38;1.75;;;0.30;;
41139;SDS011;26881;48.784;9.192;2023-04-01T13:16:23;2.17;;;0.60;;
41139;SDS011;26881;48.784;9.192;2023-04-01T13:27:37;0.40;;;0.40;;
41139;SDS011;26881;48.784;9.192;2023-04-01T14:13:20;0.40;;;0.40;;
41139;SDS011;26881;48.784;9.192;2023-04-01T14:19:12;0.90;;;0.40;;
41139;SDS011;26881;48.784;9.192;2023-04-01T14:25:05;0.35;;;0.35;;
41139;SDS011;26881;48.784;9.192;2023-04-01T14:36:37;0.73;;;0.50;;
41139;SDS011;26881;48.784;9.192;2023-04-01T14:42:21;0.73;;;0.40;;
41139;SDS011;26881;48.784;9.192;2023-04-01T14:48:21;0.38;;;0.20;;
41139;SDS011;26881;48.784;9.192;2023-04-01T14:53:58;0.32;;;0.30;;
41139;SDS011;26881;48.784;9.192;2023-04-01T15:04:54;0.40;;;0.30;;
41139;SDS011;26881;48.784;9.192;2023-04-01T15:11:12;0.90;;;0.57;;
41139;SDS011;26881;48.784;9.192;2023-04-01T15:22:27;2.17;;;0.50;;
41139;SDS011;26881;48.784;9.192;2023-04-01T15:28:28;0.43;;;0.40;;
41139;SDS011;26881;48.784;9.192;2023-04-01T15:34:08;1.38;;;0.38;;
41139;SDS011;26881;48.784;9.192;2023-04-01T16:02:24;1.05;;;0.57;;
41139;SDS011;26881;48.784;9.192;2023-04-01T16:08:09;0.75;;;0.60;;
41139;SDS011;26881;48.784;9.192;2023-04-01T16:30:44;0.70;;;0.70;;
41139;SDS011;26881;48.784;9.192;2023-04-01T16:47:29;0.60;;;0.60;;
41139;SDS011;26881;48.784;9.192;2023-04-01T16:52:58;0.45;;;0.45;;
41139;SDS011;26881;48.784;9.192;2023-04-01T16:58:25;0.80;;;0.70;;
41139;SDS011;26881;48.784;9.192;2023-04-01T17:03:52;2.33;;;1.23;;
41139;SDS011;26881;48.784;9.192;2023-04-01T17:09:24;3.88;;;1.52;;
41139;SDS011;26881;48.784;9.192;2023-04-01T17:32:20;5.07;;;1.63;;
41139;SDS011;26881;48.784;9.192;2023-04-01T17:43:33;3.22;;;1.60;;
41139;SDS011;26881;48.784;9.192;2023-04-01T17:49:23;3.35;;;1.50;;
41139;SDS011;26881;48.784;9.192;2023-04-01T17:54:55;3.55;;;2.20;;
41139;SDS011;26881;48.784;9.192;2023-04-01T18:06:21;3.85;;;2.00;;
41139;SDS011;26881;48.784;9.192;2023-04-01T18:17:41;0.88;;;0.70;;
41139;SDS011;26881;48.784;9.192;2023-04-01T18:35:24;2.67;;;1.63;;
41139;SDS011;26881;48.784;9.192;2023-04-01T18:41:15;4.50;;;1.70;;
41139;SDS011;26881;48.784;9.192;2023-04-01T18:46:48;2.83;;;1.33;;
41139;SDS011;26881;48.784;9.192;2023-04-01T18:52:27;4.95;;;2.20;;
41139;SDS011;26881;48.784;9.192;2023-04-01T19:04:01;3.67;;;2.03;;
41139;SDS011;26881;48.784;9.192;2023-04-01T19:09:26;6.22;;;2.20;;
41139;SDS011;26881;48.784;9.192;2023-04-01T19:25:57;2.60;;;1.38;;
41139;SDS011;26881;48.784;9.192;2023-04-01T19:37:56;5.65;;;2.08;;
41139;SDS011;26881;48.784;9.192;2023-04-01T19:43:18;7.63;;;2.90;;
41139;SDS011;26881;48.784;9.192;2023-04-01T20:17:18;5.78;;;2.35;;
41139;SDS011;26881;48.784;9.192;2023-04-01T20:28:09;2.45;;;1.42;;
41139;SDS011;26881;48.784;9.192;2023-04-01T20:39:40;4.60;;;1.00;;
41139;SDS011;26881;48.784;9.192;2023-04-01T20:45:17;1.63;;;0.98;;
41139;SDS011;26881;48.784;9.192;2023-04-01T20:50:47;2.35;;;1.33;;
41139;SDS011;26881;48.784;9.192;2023-04-01T20:56:15;1.63;;;0.90;;
41139;SDS011;26881;48.784;9.192;2023-04-01T21:42:32;2.72;;;1.58;;
41139;SDS011;26881;48.784;9.192;2023-04-01T21:59:56;2.20;;;1.60;;
41139;SDS011;26881;48.784;9.192;2023-04-01T22:11:58;4.15;;;1.38;;
41139;SDS011;26881;48.784;9.192;2023-04-01T22:17:28;3.83;;;1.10;;
41139;SDS011;26881;48.784;9.192;2023-04-01T22:23:10;3.17;;;1.20;;
41139;SDS011;26881;48.784;9.192;2023-04-01T22:28:41;2.22;;;1.40;;
41139;SDS011;26881;48.784;9.192;2023-04-01T22:34:15;3.08;;;2.20;;
41139;SDS011;26881;48.784;9.192;2023-04-01T22:40:21;3.58;;;1.60;;
41139;SDS011;26881;48.784;9.192;2023-04-01T23:36:13;2.40;;;0.95;;
41139;SDS011;26881;48.784;9.192;2023-04-01T23:41:36;6.28;;;0.80;;
41139;SDS011;26881;48.784;9.192;2023-04-01T23:46:58;1.92;;;0.75;;
41139;SDS011;26881;48.784;9.192;2023-04-01T23:52:23;1.92;;;0.77;;
